Weather observations for the past three days for
Fosston, Fosston Municipal Airport
Imperial (Metric)
Date Time (cdt) Wind (mph) Vis. (mi.) Weather Sky Cond. Temperature (ºF) Relative Humidity Wind Chill (°F) Heat Index (°F) Pressure Precipitation (in)
Air Dwpt 6 hour altimeter (in) sea level (mb) 1 hr 3 hr 6 hr
Max. Min.
01 07:36 SW 6 10.00 NULL NULL 55.4 50 82% 29.94 0.0
01 07:16 SW 8 10.00 NULL NULL 53.6 50 88% 29.94 0.0
01 06:57 S 9 10.00 NULL NULL 51.8 50 94% 29.94 0.0
01 06:39 SW 8 10.00 NULL NULL 53.6 48.2 82% 29.93 0.0
01 06:16 SW 6 10.00 NULL NULL 53.6 48.2 82% 29.92 0.0
01 05:54 SW 7 10.00 NULL NULL 53.6 50 88% 29.92 0.0
01 05:39 S 8 10.00 NULL NULL 51.8 48.2 88% 29.92 0.0
01 05:14 SW 6 10.00 NULL NULL 53.6 48.2 82% 29.91 0.0
01 04:54 SW 6 10.00 NULL NULL 53.6 48.2 82% 29.91 0.0
01 04:35 SW 6 10.00 NULL NULL 53.6 50 88% 29.91 0.0
01 04:15 SW 5 10.00 NULL NULL 53.6 48.2 82% 29.91 0.0
01 03:55 SW 6 10.00 NULL NULL 53.6 50 88% 29.9 0.0
01 03:36 SW 7 10.00 NULL NULL 53.6 50 88% 29.91 0.0
01 03:15 SW 6 10.00 NULL NULL 53.6 51.8 94% 29.91 0.0
01 02:55 S 7 10.00 NULL NULL 53.6 51.8 94% 29.9 0.0
01 02:29 S 7 10.00 NULL NULL 55.4 48.2 77% 29.9 0.0
01 02:18 S 7 10.00 NULL NULL 55.4 48.2 77% 29.9 0.0
01 01:59 SW 6 10.00 NULL NULL 55.4 48.2 77% 29.9 0.0
01 01:35 SW 5 10.00 NULL NULL 59 48.2 68% 29.9 0.0
01 01:20 SW 5 10.00 NULL NULL 59 48.2 68% 29.9 0.0
01 00:55 SW 6 10.00 NULL NULL 60.8 48.2 63% 29.89 0.0
01 00:39 SW 6 10.00 NULL NULL 60.8 48.2 63% 29.89 0.0
01 00:16 SW 6 10.00 NULL NULL 62.6 48.2 60% 29.89 0.0
01 00:02 SW 7 10.00 NULL NULL 62.6 48.2 60% 29.89 0.0
31 23:45 W 8 10.00 NULL NULL 64.4 48.2 56% 29.88 0.0
31 23:35 W 13 G 16 10.00 NULL NULL 62.6 48.2 60% 29.88 0.0
31 23:15 SW 9 10.00 NULL NULL 64.4 48.2 56% 29.86 0.0
31 22:55 SW 8 10.00 NULL NULL 64.4 48.2 56% 29.86 0.0
31 22:29 SW 7 10.00 NULL NULL 62.6 50 64% 29.86 0.0
31 22:15 SW 7 10.00 NULL NULL 62.6 50 64% 29.86 0.0
31 21:55 SW 6 10.00 NULL NULL 62.6 50 64% 29.86 0.0
31 21:37 SW 7 10.00 NULL NULL 64.4 50 60% 29.86 0.0
31 21:11 SW 7 10.00 NULL NULL 64.4 50 60% 29.86 0.0
31 20:55 SW 7 10.00 NULL NULL 66.2 50 56% 29.85 0.0
31 20:35 SW 8 10.00 NULL NULL 69.8 48.2 46% 29.84 0.0
31 20:18 SW 7 10.00 NULL NULL 71.6 48.2 44% 29.84 0.0
31 19:55 SW 9 10.00 NULL NULL 73.4 46.4 38% 29.84 0.0
31 19:35 SW 9 10.00 NULL NULL 75.2 46.4 36% 77 29.83 0.0
31 19:15 SW 9 10.00 NULL NULL 78.8 44.6 30% 79 29.83 0.0
31 18:16 SW 14 G 23 10.00 NULL NULL 82.4 42.8 25% 80 29.83 0.0
31 17:57 SW 16 G 28 10.00 NULL NULL 82.4 41 23% 80 29.83 0.0
31 17:34 SW 13 G 17 10.00 NULL NULL 82.4 42.8 25% 80 29.83 0.0
31 17:17 SW 16 G 23 10.00 NULL NULL 82.4 41 23% 80 29.83 0.0
31 16:55 SW 15 G 24 10.00 NULL NULL 82.4 44.6 26% 81 29.83 0.0
31 16:35 SW 15 G 18 10.00 NULL NULL 82.4 46.4 28% 81 29.83 0.0
31 16:22 SW 15 G 23 10.00 NULL NULL 80.6 46.4 30% 80 0 0.0
31 15:25 SW 15 G 22 10.00 NULL NULL 80.6 46.4 30% 80 29.85 0.0
31 14:56 SW 12 G 20 10.00 NULL NULL 78.8 46.4 32% 79 29.86 0.0
31 14:35 SW 13 G 21 0.00 NULL NULL 78.8 48.2 34% 79 29.86 0.0
Date Time (cdt) Wind (mph) Vis. (mi.) Weather Sky Cond. Air Dwpt Max. Min. Relative Humidity Wind Chill (°F) Heat Index (°F) altimeter (in) sea level (mb) 1 hr 3 hr 6 hr
6 hour
Temperature (ºF) Pressure Precipitation (in)